Time;durP1;ratioP1;P1;durP2;ratioP2;P2;SDS_P1;SDS_P2;PMS_P1;PMS_P2;Temp;Humidity;BMP_temperature;BMP_pressure;BME280_temperature;BME280_humidity;BME280_pressure;Samples;Min_cycle;Max_cycle;Signal;HPM_P1;HPM_P2
2023/08/04 00:00:35;;;;;;;44.97;29.77;;;27.80;99.90;;;;;;5015064;28;20041;-75
2023/08/04 00:03:01;;;;;;;48.58;31.50;;;27.80;99.90;;;;;;5015393;28;20041;-75
2023/08/04 00:05:28;;;;;;;56.67;36.85;;;27.80;99.90;;;;;;5015129;28;20025;-75
2023/08/04 00:07:55;;;;;;;55.00;34.53;;;27.70;99.90;;;;;;5015242;28;20049;-74
2023/08/04 00:10:22;;;;;;;57.72;34.90;;;27.70;99.90;;;;;;5014848;28;20046;-75
2023/08/04 00:12:48;;;;;;;54.53;34.38;;;27.70;99.90;;;;;;5015091;28;20028;-74
2023/08/04 00:15:15;;;;;;;49.55;32.70;;;27.70;99.90;;;;;;5014884;28;20022;-74
2023/08/04 00:17:41;;;;;;;55.63;32.85;;;27.70;99.90;;;;;;5015045;28;20466;-74
2023/08/04 00:20:10;;;;;;;55.80;35.95;;;27.80;99.90;;;;;;5014867;28;20037;-73
2023/08/04 00:22:38;;;;;;;59.58;34.90;;;27.70;99.90;;;;;;5014853;28;20598;-73
2023/08/04 00:25:05;;;;;;;56.38;34.50;;;27.70;99.90;;;;;;5014725;28;20034;-74
2023/08/04 00:27:32;;;;;;;53.83;33.60;;;27.70;99.90;;;;;;5014354;28;20022;-73
2023/08/04 00:29:58;;;;;;;45.15;30.77;;;27.70;99.90;;;;;;5014559;28;20018;-73
2023/08/04 00:32:25;;;;;;;55.42;32.95;;;27.80;99.90;;;;;;5014619;28;20482;-74
2023/08/04 00:34:51;;;;;;;60.90;34.45;;;27.70;99.90;;;;;;5014580;28;20112;-74
2023/08/04 00:37:18;;;;;;;52.25;32.78;;;27.80;99.90;;;;;;5014497;28;20030;-74
2023/08/04 00:39:44;;;;;;;53.03;33.42;;;27.70;99.90;;;;;;5014804;28;20433;-73
2023/08/04 00:42:11;;;;;;;61.45;34.67;;;27.80;99.90;;;;;;5014442;28;20033;-73
2023/08/04 00:44:37;;;;;;;41.65;31.20;;;27.80;99.90;;;;;;5014267;28;20045;-75
2023/08/04 00:47:06;;;;;;;59.30;32.58;;;27.80;99.90;;;;;;5025497;28;20021;-75
2023/08/04 00:49:33;;;;;;;52.90;35.70;;;27.90;99.90;;;;;;5014310;28;20046;-76
2023/08/04 00:52:00;;;;;;;61.42;36.03;;;27.90;99.90;;;;;;5014119;28;20022;-76
2023/08/04 00:54:26;;;;;;;53.70;31.20;;;28.00;99.90;;;;;;5029082;28;20057;-76
2023/08/04 00:56:54;;;;;;;39.47;26.27;;;28.00;99.90;;;;;;5014371;28;20041;-76
2023/08/04 00:59:21;;;;;;;42.85;29.30;;;28.10;99.90;;;;;;5014140;28;20026;-76
2023/08/04 01:01:49;;;;;;;57.67;32.25;;;28.20;99.90;;;;;;5013950;28;20044;-75
2023/08/04 01:04:16;;;;;;;56.22;33.67;;;28.30;99.90;;;;;;5013930;28;20493;-74
2023/08/04 01:06:48;;;;;;;44.20;24.42;;;28.30;99.90;;;;;;5013901;28;20133;-75
2023/08/04 01:09:40;;;;;;;47.08;25.45;;;28.30;99.90;;;;;;5014103;28;20061;-75
2023/08/04 01:12:41;;;;;;;113.07;79.97;;;28.30;99.90;;;;;;5013893;28;20030;-76
2023/08/04 01:15:11;;;;;;;55.55;31.83;;;28.30;99.90;;;;;;5014086;28;20045;-74
2023/08/04 01:17:37;;;;;;;58.15;35.13;;;28.30;99.90;;;;;;5014001;28;20036;-74
2023/08/04 01:20:04;;;;;;;44.90;26.50;;;28.40;99.90;;;;;;5013998;28;20072;-75
2023/08/04 01:22:32;;;;;;;64.15;38.00;;;28.40;99.90;;;;;;5014003;28;20372;-74
2023/08/04 01:24:59;;;;;;;50.45;28.50;;;28.50;99.90;;;;;;5013564;28;20038;-73
2023/08/04 01:27:35;;;;;;;58.72;31.95;;;28.50;99.90;;;;;;5013780;28;20022;-73
2023/08/04 01:30:04;;;;;;;47.50;29.70;;;28.60;99.90;;;;;;5013530;28;20048;-74
2023/08/04 01:32:31;;;;;;;64.82;33.65;;;28.60;99.90;;;;;;5013644;28;20089;-74
2023/08/04 01:34:57;;;;;;;55.83;29.63;;;28.60;99.90;;;;;;5013641;28;20030;-75
2023/08/04 01:37:24;;;;;;;50.60;28.17;;;28.60;99.90;;;;;;5013474;28;20033;-74
2023/08/04 01:39:50;;;;;;;47.35;29.60;;;28.70;99.90;;;;;;5012845;28;20030;-74
2023/08/04 01:42:17;;;;;;;43.70;29.48;;;28.70;99.90;;;;;;5014234;28;20026;-74
2023/08/04 01:44:44;;;;;;;43.92;30.33;;;28.80;99.90;;;;;;5013871;28;20025;-74
2023/08/04 01:47:10;;;;;;;44.40;28.02;;;28.90;99.90;;;;;;5014322;28;20022;-75
2023/08/04 01:49:37;;;;;;;51.45;28.50;;;29.00;99.90;;;;;;5014838;28;20020;-73
2023/08/04 01:52:03;;;;;;;51.88;29.58;;;29.00;99.90;;;;;;5014247;28;20068;-74
2023/08/04 01:54:30;;;;;;;47.78;28.83;;;29.10;99.90;;;;;;5014301;28;20469;-72
2023/08/04 01:56:56;;;;;;;47.15;26.77;;;29.10;99.90;;;;;;5014533;28;20345;-72
2023/08/04 01:59:23;;;;;;;37.33;19.63;;;29.20;99.90;;;;;;5014892;28;20033;-71
2023/08/04 02:01:49;;;;;;;38.47;19.05;;;29.20;99.90;;;;;;5014922;28;20018;-71
2023/08/04 02:04:16;;;;;;;26.48;16.83;;;29.20;99.90;;;;;;5014920;28;20046;-71
2023/08/04 02:06:43;;;;;;;41.35;19.10;;;29.30;99.90;;;;;;5014704;28;20101;-71
2023/08/04 02:09:09;;;;;;;33.70;17.40;;;29.40;99.90;;;;;;5013763;28;20092;-72
2023/08/04 02:11:36;;;;;;;31.70;19.60;;;29.50;99.90;;;;;;5013917;28;20026;-72
2023/08/04 02:14:02;;;;;;;34.58;19.70;;;29.50;99.90;;;;;;5013931;28;20022;-71
2023/08/04 02:16:29;;;;;;;32.65;17.80;;;29.50;99.90;;;;;;5013244;28;20018;-70
2023/08/04 02:19:07;;;;;;;35.20;18.90;;;29.50;99.90;;;;;;5013296;28;20022;-72
2023/08/04 02:21:33;;;;;;;43.58;19.48;;;29.60;99.90;;;;;;5013093;28;20467;-70
2023/08/04 02:24:00;;;;;;;41.58;21.20;;;29.60;99.90;;;;;;5013177;28;20018;-68
2023/08/04 02:26:26;;;;;;;37.40;20.00;;;29.60;99.90;;;;;;5013198;28;20018;-68
2023/08/04 02:28:54;;;;;;;33.42;20.67;;;29.60;99.90;;;;;;5012991;28;20386;-69
2023/08/04 02:31:23;;;;;;;39.50;21.10;;;29.70;99.90;;;;;;5013546;28;20382;-69
2023/08/04 02:33:50;;;;;;;33.35;21.27;;;29.70;99.90;;;;;;5013280;28;20032;-69
2023/08/04 02:36:17;;;;;;;37.83;21.25;;;29.90;99.90;;;;;;5012141;28;20022;-69
2023/08/04 02:38:43;;;;;;;41.45;21.33;;;29.90;99.90;;;;;;5012757;28;20475;-69
2023/08/04 02:41:10;;;;;;;32.42;18.58;;;29.90;99.90;;;;;;5012912;28;20030;-69
2023/08/04 02:43:37;;;;;;;32.45;18.77;;;30.00;99.90;;;;;;5012930;28;20028;-69
2023/08/04 02:46:04;;;;;;;35.80;19.08;;;30.00;99.90;;;;;;5012915;28;20069;-69
2023/08/04 02:48:32;;;;;;;31.58;18.48;;;30.10;99.90;;;;;;5013118;28;20022;-67
2023/08/04 02:51:09;;;;;;;33.72;17.83;;;30.20;99.90;;;;;;5014322;28;20061;-71
2023/08/04 02:53:39;;;;;;;27.70;18.25;;;30.30;99.90;;;;;;5016441;28;20026;-71
2023/08/04 02:56:17;;;;;;;31.92;19.63;;;30.40;99.90;;;;;;5016409;28;20109;-70
2023/08/04 02:58:44;;;;;;;29.17;18.13;;;30.50;99.90;;;;;;5016566;28;20439;-70
2023/08/04 03:01:12;;;;;;;41.38;19.67;;;30.40;99.90;;;;;;5016479;28;20036;-70
2023/08/04 03:03:39;;;;;;;32.00;20.55;;;30.40;99.90;;;;;;5016221;28;20025;-69
2023/08/04 03:06:06;;;;;;;36.55;20.88;;;30.40;99.90;;;;;;5016168;28;20022;-67
2023/08/04 03:08:33;;;;;;;41.33;23.45;;;30.40;99.90;;;;;;5016188;28;20121;-68
2023/08/04 03:11:00;;;;;;;38.85;22.52;;;30.50;99.90;;;;;;5015784;28;20049;-67
2023/08/04 03:13:27;;;;;;;42.00;22.63;;;30.50;99.90;;;;;;5016114;28;20368;-67
2023/08/04 03:15:55;;;;;;;42.30;24.08;;;30.50;99.90;;;;;;5015929;28;20030;-73
2023/08/04 03:18:22;;;;;;;38.67;24.10;;;30.50;99.90;;;;;;5015891;28;20104;-69
2023/08/04 03:20:49;;;;;;;42.70;23.17;;;30.60;99.90;;;;;;5016386;28;20360;-69
2023/08/04 03:23:16;;;;;;;35.40;22.75;;;30.70;99.90;;;;;;5015920;28;20022;-68
2023/08/04 03:25:42;;;;;;;37.72;22.08;;;30.80;99.90;;;;;;5015678;28;20145;-69
2023/08/04 03:28:09;;;;;;;39.53;24.92;;;30.90;99.90;;;;;;5015833;28;20048;-65
2023/08/04 03:30:35;;;;;;;96.18;58.33;;;31.00;99.90;;;;;;5016058;28;20427;-70
2023/08/04 03:33:02;;;;;;;56.92;34.63;;;31.10;99.90;;;;;;5015685;28;20061;-66
2023/08/04 03:35:29;;;;;;;84.03;56.97;;;31.20;99.90;;;;;;5015822;28;20080;-68
2023/08/04 03:37:55;;;;;;;36.60;21.10;;;31.30;99.90;;;;;;5015521;28;20095;-67
2023/08/04 03:40:22;;;;;;;36.88;20.80;;;31.30;99.90;;;;;;5015538;28;20026;-67
2023/08/04 03:42:49;;;;;;;32.88;20.67;;;31.40;99.90;;;;;;5015437;28;20467;-67
2023/08/04 03:45:15;;;;;;;34.10;20.67;;;31.50;99.90;;;;;;5015421;28;20533;-67
2023/08/04 03:47:42;;;;;;;37.10;26.02;;;31.50;99.90;;;;;;5015559;28;20026;-67
2023/08/04 03:50:09;;;;;;;65.78;39.10;;;31.50;99.90;;;;;;5016017;28;20101;-69
2023/08/04 03:52:35;;;;;;;70.40;39.90;;;31.60;99.90;;;;;;5015883;28;20018;-66
2023/08/04 03:55:02;;;;;;;39.47;29.25;;;31.70;99.90;;;;;;5016066;28;20474;-70
2023/08/04 03:57:29;;;;;;;42.25;22.95;;;31.70;99.90;;;;;;5015549;28;20066;-68
2023/08/04 03:59:55;;;;;;;29.00;22.10;;;31.80;99.90;;;;;;5018221;28;20022;-68
2023/08/04 04:02:22;;;;;;;33.50;20.27;;;31.80;99.90;;;;;;5023295;28;20104;-68
2023/08/04 04:04:48;;;;;;;28.75;19.63;;;31.80;99.90;;;;;;5015687;28;20026;-68
2023/08/04 04:07:15;;;;;;;34.58;21.15;;;31.80;99.90;;;;;;5015979;28;20022;-66
2023/08/04 04:09:41;;;;;;;37.10;21.08;;;31.80;99.90;;;;;;5034150;28;20045;-68
2023/08/04 04:12:08;;;;;;;28.30;20.58;;;31.80;99.90;;;;;;5016681;28;20025;-67
2023/08/04 04:14:35;;;;;;;35.83;21.10;;;31.80;99.90;;;;;;5015297;28;20034;-68
2023/08/04 04:17:03;;;;;;;33.47;19.75;;;31.90;99.90;;;;;;5015219;28;20022;-69
2023/08/04 04:19:29;;;;;;;29.27;19.80;;;31.90;99.90;;;;;;5015353;28;20109;-69
2023/08/04 04:21:56;;;;;;;31.30;19.98;;;31.90;99.90;;;;;;5015361;28;20117;-71
2023/08/04 04:24:22;;;;;;;27.52;20.85;;;31.80;99.90;;;;;;5015180;28;20026;-67
2023/08/04 04:26:49;;;;;;;30.02;21.20;;;31.70;99.90;;;;;;5015116;28;20046;-68
2023/08/04 04:29:15;;;;;;;33.67;20.95;;;31.70;99.90;;;;;;5015194;28;20105;-67
2023/08/04 04:31:42;;;;;;;30.52;22.00;;;31.80;99.90;;;;;;5015163;28;20084;-67
2023/08/04 04:34:08;;;;;;;33.38;21.60;;;31.70;99.90;;;;;;5014659;28;20537;-67
2023/08/04 04:36:35;;;;;;;27.65;20.42;;;31.70;99.90;;;;;;5015438;28;20080;-68
2023/08/04 04:39:02;;;;;;;34.13;21.90;;;31.70;99.90;;;;;;5015004;28;20025;-69
2023/08/04 04:41:30;;;;;;;37.08;20.75;;;31.80;99.90;;;;;;5014710;28;20030;-69
2023/08/04 04:43:57;;;;;;;32.50;20.00;;;31.90;99.90;;;;;;5014733;28;20026;-68
2023/08/04 04:46:24;;;;;;;29.77;20.15;;;31.90;99.90;;;;;;5014680;28;20030;-68
2023/08/04 04:48:50;;;;;;;29.20;20.70;;;32.00;99.90;;;;;;5014934;28;20025;-69
2023/08/04 04:51:17;;;;;;;35.53;19.15;;;32.10;99.90;;;;;;5014515;28;20026;-69
2023/08/04 04:53:43;;;;;;;32.17;20.23;;;32.20;99.90;;;;;;5014928;28;20021;-68
2023/08/04 04:56:10;;;;;;;29.73;19.38;;;32.20;99.90;;;;;;5014557;28;20033;-68
2023/08/04 04:58:37;;;;;;;30.58;19.75;;;32.20;99.90;;;;;;5017474;28;20025;-68
2023/08/04 05:01:04;;;;;;;28.83;20.60;;;32.20;99.90;;;;;;5034180;28;20091;-69
2023/08/04 05:03:31;;;;;;;31.45;20.20;;;32.20;99.90;;;;;;5033978;28;20060;-70
2023/08/04 05:05:58;;;;;;;31.17;19.80;;;32.40;99.90;;;;;;5033848;28;20022;-69
2023/08/04 05:08:24;;;;;;;30.75;19.23;;;32.50;99.90;;;;;;5034151;28;20013;-70
2023/08/04 05:10:52;;;;;;;29.67;19.85;;;32.50;99.90;;;;;;5034047;28;20398;-69
2023/08/04 05:13:18;;;;;;;29.27;18.15;;;32.50;99.90;;;;;;5034056;28;20075;-68
2023/08/04 05:15:48;;;;;;;29.60;18.85;;;32.60;99.90;;;;;;5033988;28;20056;-69
2023/08/04 05:18:16;;;;;;;32.72;19.40;;;32.60;99.90;;;;;;5033957;28;20029;-68
2023/08/04 05:20:45;;;;;;;22.60;17.35;;;32.70;99.90;;;;;;5033833;28;20025;-67
2023/08/04 05:23:12;;;;;;;22.05;17.35;;;32.70;99.90;;;;;;5034574;28;20032;-68
2023/08/04 05:25:39;;;;;;;28.35;17.88;;;32.70;99.90;;;;;;5033883;28;20467;-68
2023/08/04 05:28:30;;;;;;;26.33;19.45;;;32.70;99.90;;;;;;5033853;28;20026;-67
2023/08/04 05:31:00;;;;;;;25.63;18.88;;;32.60;99.90;;;;;;5033649;28;20474;-68
2023/08/04 05:33:28;;;;;;;27.60;18.85;;;32.60;99.90;;;;;;5032157;28;20025;-68
2023/08/04 05:35:55;;;;;;;27.38;19.13;;;32.60;99.90;;;;;;5025823;28;20601;-68
2023/08/04 05:38:22;;;;;;;34.80;18.10;;;32.50;99.90;;;;;;5033395;28;20032;-69
2023/08/04 05:40:50;;;;;;;22.90;18.30;;;32.50;99.90;;;;;;5033561;28;20021;-68
2023/08/04 05:43:17;;;;;;;30.50;19.42;;;32.50;99.90;;;;;;5033550;28;20478;-67
2023/08/04 05:45:47;;;;;;;29.70;18.40;;;32.60;99.90;;;;;;5033106;28;20029;-68
2023/08/04 05:48:13;;;;;;;28.02;18.70;;;32.80;99.90;;;;;;5033592;28;20049;-69
2023/08/04 05:50:40;;;;;;;26.35;18.25;;;32.80;99.90;;;;;;5033383;28;20553;-68
2023/08/04 05:53:07;;;;;;;26.00;17.27;;;32.90;99.90;;;;;;5033241;28;20029;-67
2023/08/04 05:55:35;;;;;;;27.42;18.27;;;33.00;99.90;;;;;;5033420;28;20018;-68
2023/08/04 05:58:02;;;;;;;26.38;17.95;;;33.00;99.90;;;;;;5033201;28;20037;-66
2023/08/04 06:00:29;;;;;;;26.60;18.52;;;33.10;99.90;;;;;;5033215;28;20109;-66
2023/08/04 06:02:56;;;;;;;28.90;18.20;;;33.20;99.90;;;;;;5033259;28;20026;-65
2023/08/04 06:05:23;;;;;;;28.63;18.38;;;33.20;99.90;;;;;;5033178;28;20031;-65
2023/08/04 06:07:49;;;;;;;27.63;18.10;;;33.30;99.90;;;;;;5033093;28;20017;-65
2023/08/04 06:10:17;;;;;;;27.83;19.08;;;33.20;99.90;;;;;;5033064;28;20046;-65
2023/08/04 06:12:44;;;;;;;26.17;18.10;;;33.10;99.90;;;;;;5033039;28;20088;-65
2023/08/04 06:15:12;;;;;;;26.42;18.60;;;33.10;99.90;;;;;;5033137;28;20163;-69
2023/08/04 06:17:39;;;;;;;30.00;19.15;;;33.30;99.90;;;;;;5033101;28;20018;-69
2023/08/04 06:20:07;;;;;;;28.95;18.45;;;33.30;99.90;;;;;;5033282;28;20079;-68
2023/08/04 06:22:34;;;;;;;25.02;19.02;;;33.30;99.90;;;;;;5033139;28;20025;-69
2023/08/04 06:25:02;;;;;;;25.65;18.13;;;33.30;99.90;;;;;;5033060;28;20048;-69
2023/08/04 06:27:28;;;;;;;30.10;18.70;;;33.30;99.90;;;;;;5037549;28;20021;-68
2023/08/04 06:29:55;;;;;;;25.52;18.58;;;33.20;99.90;;;;;;5037144;28;20026;-69
2023/08/04 06:32:22;;;;;;;27.77;19.45;;;33.30;99.90;;;;;;5037431;28;20136;-69
2023/08/04 06:34:48;;;;;;;24.50;18.17;;;33.30;99.90;;;;;;5037121;28;20075;-69
2023/08/04 06:37:15;;;;;;;28.27;18.98;;;33.40;99.90;;;;;;5036961;28;20036;-65
2023/08/04 06:39:41;;;;;;;30.02;20.88;;;33.40;99.90;;;;;;5036687;28;20079;-67
2023/08/04 06:42:08;;;;;;;26.20;19.73;;;33.50;99.90;;;;;;5036925;28;20466;-69
2023/08/04 06:44:35;;;;;;;25.55;19.35;;;33.50;99.90;;;;;;5036896;28;20493;-70
2023/08/04 06:47:01;;;;;;;26.10;19.13;;;33.50;99.90;;;;;;5036610;28;20021;-69
2023/08/04 06:49:28;;;;;;;27.15;19.48;;;33.40;99.90;;;;;;5036942;28;20056;-70
2023/08/04 06:51:54;;;;;;;24.33;18.92;;;33.40;99.90;;;;;;5036739;28;20028;-72
2023/08/04 06:54:21;;;;;;;33.05;20.00;;;33.30;99.90;;;;;;5036505;28;20090;-70
2023/08/04 06:56:48;;;;;;;32.13;19.52;;;33.20;99.90;;;;;;5036771;28;20022;-71
2023/08/04 06:59:14;;;;;;;26.60;19.00;;;33.20;99.90;;;;;;5036603;28;20026;-71
2023/08/04 07:01:41;;;;;;;25.00;16.95;;;33.10;99.90;;;;;;5036289;28;20155;-70
2023/08/04 07:04:07;;;;;;;29.08;16.10;;;33.00;99.90;;;;;;5036210;28;20092;-69
2023/08/04 07:06:34;;;;;;;28.60;16.25;;;33.00;99.90;;;;;;5036221;28;20025;-70
2023/08/04 07:09:00;;;;;;;30.52;17.85;;;33.00;99.90;;;;;;5035861;28;20470;-70
2023/08/04 07:11:27;;;;;;;30.13;18.30;;;33.10;99.90;;;;;;5035299;28;20110;-66
2023/08/04 07:13:53;;;;;;;38.28;18.92;;;33.30;99.90;;;;;;5035493;28;20028;-70
2023/08/04 07:16:21;;;;;;;49.67;31.45;;;33.30;99.90;;;;;;5035551;28;20075;-70
2023/08/04 07:18:47;;;;;;;50.13;35.85;;;33.40;99.90;;;;;;5035976;28;20536;-70
2023/08/04 07:21:14;;;;;;;58.75;41.10;;;33.50;99.90;;;;;;5035629;28;20100;-66
2023/08/04 07:23:41;;;;;;;57.13;41.05;;;33.60;99.90;;;;;;5035430;28;20029;-66
2023/08/04 07:26:09;;;;;;;72.95;51.47;;;33.70;99.90;;;;;;5035526;28;20109;-66
2023/08/04 07:28:36;;;;;;;42.22;23.20;;;33.80;99.90;;;;;;5035565;28;20021;-70
2023/08/04 07:31:05;;;;;;;34.03;19.90;;;33.90;99.90;;;;;;5035392;28;20014;-69
2023/08/04 07:33:32;;;;;;;36.00;22.60;;;34.10;99.90;;;;;;5035304;28;20033;-68
2023/08/04 07:35:59;;;;;;;30.63;19.58;;;34.20;99.90;;;;;;5035346;28;20045;-69
2023/08/04 07:38:27;;;;;;;25.52;18.52;;;34.20;99.90;;;;;;5034092;28;20539;-67
2023/08/04 07:40:54;;;;;;;28.05;18.90;;;34.00;99.90;;;;;;5033788;28;20131;-69
2023/08/04 07:43:20;;;;;;;24.90;16.92;;;33.90;99.90;;;;;;5026164;28;20034;-67
2023/08/04 07:45:47;;;;;;;23.92;15.07;;;33.80;99.90;;;;;;5015262;28;20467;-68
2023/08/04 07:48:14;;;;;;;29.73;20.23;;;33.70;99.90;;;;;;5015324;28;20427;-69
2023/08/04 07:50:43;;;;;;;29.40;17.80;;;33.70;99.90;;;;;;5015179;28;20111;-69
2023/08/04 07:53:10;;;;;;;28.27;15.88;;;33.90;99.90;;;;;;5015071;28;20479;-69
2023/08/04 07:55:36;;;;;;;24.52;16.67;;;34.00;99.90;;;;;;5029437;28;20110;-69
2023/08/04 07:58:04;;;;;;;35.83;19.60;;;34.10;99.90;;;;;;5035017;28;20032;-69
2023/08/04 08:00:30;;;;;;;26.88;17.45;;;34.20;99.90;;;;;;5034824;28;20482;-68
2023/08/04 08:02:57;;;;;;;25.77;17.25;;;34.20;99.90;;;;;;5034930;28;20026;-69
2023/08/04 08:05:23;;;;;;;24.45;18.15;;;34.30;99.90;;;;;;5025649;28;20030;-69
2023/08/04 08:07:50;;;;;;;27.38;18.25;;;34.30;99.90;;;;;;5024374;28;20487;-69
2023/08/04 08:10:18;;;;;;;26.58;16.77;;;34.30;99.90;;;;;;5024550;28;20037;-69
2023/08/04 08:12:44;;;;;;;29.88;17.73;;;34.20;99.90;;;;;;5022880;28;20467;-69
2023/08/04 08:15:12;;;;;;;43.40;17.33;;;34.10;99.90;;;;;;5024278;28;20033;-69
2023/08/04 08:17:38;;;;;;;25.75;14.00;;;33.90;99.90;;;;;;5024691;28;20068;-69
2023/08/04 08:20:06;;;;;;;33.45;14.40;;;33.70;99.90;;;;;;5028475;28;20030;-66
2023/08/04 08:22:33;;;;;;;38.10;14.65;;;33.50;99.90;;;;;;5025949;28;20156;-68
2023/08/04 08:24:59;;;;;;;29.55;16.50;;;33.30;99.90;;;;;;5014672;28;20030;-69
2023/08/04 08:27:26;;;;;;;30.63;16.67;;;33.00;99.90;;;;;;5014647;28;20038;-72
2023/08/04 08:29:54;;;;;;;27.00;15.90;;;32.90;99.90;;;;;;5014556;28;20029;-70
2023/08/04 08:32:22;;;;;;;30.88;17.45;;;32.70;99.90;;;;;;5014574;28;20101;-68
2023/08/04 08:34:49;;;;;;;106.20;70.00;;;32.60;99.90;;;;;;5014527;28;20079;-69
2023/08/04 08:37:15;;;;;;;45.78;31.65;;;32.50;99.90;;;;;;5014307;28;20026;-69
2023/08/04 08:39:42;;;;;;;89.07;57.47;;;32.50;99.90;;;;;;5014459;28;20041;-69
2023/08/04 08:42:08;;;;;;;44.75;32.63;;;32.40;99.90;;;;;;5014265;28;20034;-71
2023/08/04 08:44:35;;;;;;;40.15;26.00;;;32.40;99.90;;;;;;5014091;28;20061;-70
2023/08/04 08:47:02;;;;;;;35.42;21.58;;;32.40;99.90;;;;;;5014200;28;20037;-68
2023/08/04 08:49:37;;;;;;;31.90;18.42;;;32.40;99.90;;;;;;5013849;28;20026;-69
2023/08/04 08:52:09;;;;;;;37.17;20.88;;;32.30;99.90;;;;;;5014015;28;20022;-70
2023/08/04 08:54:38;;;;;;;57.30;37.35;;;32.30;99.90;;;;;;5014105;28;20030;-71
2023/08/04 08:57:06;;;;;;;58.30;37.50;;;32.30;99.90;;;;;;5020603;28;20042;-71
2023/08/04 08:59:33;;;;;;;47.70;32.20;;;32.50;99.90;;;;;;5016112;28;20026;-70
2023/08/04 09:02:02;;;;;;;38.95;27.45;;;32.50;99.90;;;;;;5014082;28;20034;-70
2023/08/04 09:04:36;;;;;;;27.23;18.23;;;32.60;99.90;;;;;;5017237;28;20029;-70
2023/08/04 09:07:03;;;;;;;22.45;14.50;;;32.70;99.90;;;;;;5014368;28;20030;-70
2023/08/04 09:09:30;;;;;;;30.77;14.55;;;32.50;99.90;;;;;;5020866;28;20045;-71
2023/08/04 09:11:56;;;;;;;35.50;15.73;;;32.40;99.90;;;;;;5022190;28;20021;-66
2023/08/04 09:14:23;;;;;;;22.52;15.65;;;32.30;99.90;;;;;;5022024;28;20030;-68
2023/08/04 09:16:50;;;;;;;23.75;15.93;;;32.30;99.90;;;;;;5022259;28;20391;-66
2023/08/04 09:19:17;;;;;;;23.27;15.88;;;32.20;99.90;;;;;;5017691;28;20030;-65
2023/08/04 09:21:43;;;;;;;26.50;16.85;;;32.10;99.90;;;;;;5025393;28;20032;-68
2023/08/04 09:24:13;;;;;;;26.52;17.95;;;32.00;99.90;;;;;;5031058;28;20040;-65
2023/08/04 09:26:43;;;;;;;28.85;17.45;;;32.00;99.90;;;;;;5024059;28;20113;-66
2023/08/04 09:29:10;;;;;;;29.45;18.92;;;32.00;99.90;;;;;;5025248;28;20032;-65
2023/08/04 09:31:41;;;;;;;32.67;19.35;;;32.00;99.90;;;;;;5033956;28;20044;-66
2023/08/04 09:34:10;;;;;;;23.92;18.45;;;32.00;99.90;;;;;;5033817;28;20017;-67
2023/08/04 09:36:48;;;;;;;50.53;37.88;;;32.00;99.90;;;;;;5024082;28;20479;-67
2023/08/04 09:39:33;;;;;;;31.80;23.98;;;31.90;99.90;;;;;;5021407;28;20030;-66
2023/08/04 09:42:00;;;;;;;25.95;19.77;;;31.90;99.90;;;;;;5016316;28;20056;-66
2023/08/04 09:44:35;;;;;;;28.63;20.33;;;31.90;99.90;;;;;;5024992;28;20028;-66
2023/08/04 09:47:05;;;;;;;29.15;21.73;;;32.00;99.90;;;;;;5014251;28;20498;-66
2023/08/04 09:49:31;;;;;;;37.00;24.00;;;32.00;99.90;;;;;;5014413;28;20076;-67
2023/08/04 09:51:59;;;;;;;33.63;24.13;;;31.90;99.90;;;;;;5013845;28;20018;-67
2023/08/04 09:54:25;;;;;;;53.30;36.65;;;31.90;99.90;;;;;;5015202;28;20030;-67
2023/08/04 09:56:52;;;;;;;67.55;44.00;;;31.90;99.90;;;;;;5024707;28;20087;-66
2023/08/04 09:59:19;;;;;;;48.55;31.17;;;32.00;99.90;;;;;;5034015;28;20098;-67
2023/08/04 10:01:46;;;;;;;37.20;25.25;;;32.00;99.90;;;;;;5036761;28;20049;-67
2023/08/04 10:04:13;;;;;;;39.40;25.02;;;31.90;99.90;;;;;;5025937;28;20061;-67
2023/08/04 10:06:40;;;;;;;36.22;25.02;;;31.80;99.90;;;;;;5018013;28;20022;-66
2023/08/04 10:09:07;;;;;;;42.63;26.15;;;31.80;99.90;;;;;;5017863;28;20026;-67
2023/08/04 10:11:34;;;;;;;41.90;26.73;;;31.80;99.90;;;;;;5017902;28;20386;-67
2023/08/04 10:14:01;;;;;;;41.25;29.08;;;31.80;99.90;;;;;;5017438;28;20025;-66
2023/08/04 10:16:31;;;;;;;41.03;28.85;;;31.70;99.90;;;;;;5025542;28;20042;-66
2023/08/04 10:19:03;;;;;;;44.33;29.95;;;31.80;99.90;;;;;;5019670;28;20033;-69
2023/08/04 10:21:40;;;;;;;42.63;28.80;;;31.80;99.90;;;;;;5025552;28;20030;-66
2023/08/04 10:24:09;;;;;;;49.95;32.22;;;31.80;99.90;;;;;;5025533;28;20030;-67
2023/08/04 10:26:48;;;;;;;54.35;38.05;;;31.80;99.90;;;;;;5025892;28;20025;-67
2023/08/04 10:29:16;;;;;;;58.60;39.80;;;31.90;99.90;;;;;;5026364;28;20072;-65
2023/08/04 10:31:45;;;;;;;44.95;34.40;;;32.00;99.90;;;;;;5026305;28;20025;-65
2023/08/04 10:34:33;;;;;;;44.85;33.67;;;32.00;99.90;;;;;;5025537;28;20383;-71
2023/08/04 10:37:11;;;;;;;133.88;99.72;;;32.00;99.90;;;;;;5025494;28;20034;-69
2023/08/04 10:39:37;;;;;;;93.78;59.42;;;32.00;99.90;;;;;;5025738;28;20096;-68
2023/08/04 10:42:12;;;;;;;232.38;153.20;;;32.00;99.90;;;;;;5026066;28;20025;-68
2023/08/04 10:45:09;;;;;;;145.50;100.95;;;31.90;99.90;;;;;;5027986;28;20410;-69
2023/08/04 10:47:35;;;;;;;50.03;35.92;;;31.90;99.90;;;;;;5027218;28;20096;-68
2023/08/04 10:50:03;;;;;;;47.10;31.83;;;31.80;99.90;;;;;;5025206;28;20026;-71
2023/08/04 10:52:31;;;;;;;49.35;32.17;;;31.80;99.90;;;;;;5024984;28;20028;-68
2023/08/04 10:54:58;;;;;;;57.63;34.33;;;31.80;99.90;;;;;;5026014;28;20025;-68
2023/08/04 10:57:29;;;;;;;57.78;35.42;;;31.80;99.90;;;;;;5025374;28;20029;-68
2023/08/04 10:59:55;;;;;;;59.40;36.50;;;31.70;99.90;;;;;;5025892;28;20025;-68
2023/08/04 11:02:23;;;;;;;62.47;37.15;;;31.70;99.90;;;;;;5025286;28;20018;-68
2023/08/04 11:04:51;;;;;;;118.50;72.70;;;31.70;99.90;;;;;;5024921;28;20036;-70
2023/08/04 11:07:19;;;;;;;70.45;45.05;;;31.70;99.90;;;;;;5025288;28;20022;-67
2023/08/04 11:09:46;;;;;;;75.13;47.55;;;31.60;99.90;;;;;;5025210;28;20111;-68
2023/08/04 11:12:14;;;;;;;69.50;43.25;;;31.60;99.90;;;;;;5024364;28;20481;-69
2023/08/04 11:14:41;;;;;;;148.65;92.60;;;31.60;99.90;;;;;;5025700;28;20070;-68
2023/08/04 11:17:28;;;;;;;78.50;42.47;;;31.60;99.90;;;;;;5024856;28;20030;-68
2023/08/04 11:19:55;;;;;;;81.45;43.28;;;31.60;99.90;;;;;;5024092;28;20030;-67
2023/08/04 11:22:23;;;;;;;59.10;40.50;;;31.50;99.90;;;;;;5025895;28;20134;-68
2023/08/04 11:24:51;;;;;;;76.25;44.47;;;31.50;99.90;;;;;;5026098;28;20029;-67
2023/08/04 11:27:19;;;;;;;69.55;42.97;;;31.50;99.90;;;;;;5019251;28;20030;-65
2023/08/04 11:29:53;;;;;;;62.05;39.75;;;31.40;99.90;;;;;;5018592;28;20481;-66
2023/08/04 11:32:21;;;;;;;67.05;43.22;;;31.50;99.90;;;;;;5024697;28;20026;-67
2023/08/04 11:34:48;;;;;;;97.97;59.08;;;31.40;99.90;;;;;;5024863;28;20363;-68
2023/08/04 11:37:16;;;;;;;69.55;42.72;;;31.40;99.90;;;;;;5026024;28;20075;-68
2023/08/04 11:39:42;;;;;;;57.13;41.45;;;31.40;99.90;;;;;;5026272;28;20076;-66
2023/08/04 11:42:11;;;;;;;72.13;46.63;;;31.40;99.90;;;;;;5015626;28;20022;-66
2023/08/04 11:44:41;;;;;;;58.22;41.22;;;31.40;99.90;;;;;;5017743;28;20382;-69
2023/08/04 11:47:10;;;;;;;58.13;43.33;;;31.30;99.90;;;;;;5025324;28;20076;-66
2023/08/04 11:49:38;;;;;;;47.35;34.70;;;31.30;99.90;;;;;;5025697;28;20021;-67
2023/08/04 11:52:09;;;;;;;48.72;36.67;;;31.20;99.90;;;;;;5024574;28;20014;-64
2023/08/04 11:54:50;;;;;;;48.40;34.77;;;31.20;99.90;;;;;;5024222;28;20453;-68
2023/08/04 11:57:18;;;;;;;48.72;34.25;;;31.10;99.90;;;;;;5023327;28;20410;-67
2023/08/04 11:59:53;;;;;;;56.13;36.80;;;31.10;99.90;;;;;;5024891;28;20100;-69
2023/08/04 12:02:20;;;;;;;58.25;38.17;;;31.00;99.90;;;;;;5023425;28;20105;-68
2023/08/04 12:04:46;;;;;;;54.72;37.35;;;31.00;99.90;;;;;;5025081;28;20080;-67
2023/08/04 12:07:15;;;;;;;52.47;36.92;;;30.90;99.90;;;;;;5029319;28;20052;-69
2023/08/04 12:09:46;;;;;;;53.95;38.03;;;30.90;99.90;;;;;;5025657;28;20132;-70
2023/08/04 12:12:13;;;;;;;60.47;37.55;;;30.90;99.90;;;;;;5028885;28;20467;-70
2023/08/04 12:14:39;;;;;;;51.78;36.03;;;30.90;99.90;;;;;;5024937;28;20021;-69
2023/08/04 12:17:06;;;;;;;51.20;36.45;;;30.80;99.90;;;;;;5022661;28;20360;-68
2023/08/04 12:19:33;;;;;;;48.45;35.80;;;30.80;99.90;;;;;;5023230;28;20075;-69
2023/08/04 12:22:03;;;;;;;54.83;36.83;;;30.80;99.90;;;;;;5027712;28;20026;-67
2023/08/04 12:24:31;;;;;;;59.88;35.45;;;30.80;99.90;;;;;;5013883;28;20034;-67
2023/08/04 12:26:58;;;;;;;50.15;33.65;;;30.80;99.90;;;;;;5014281;28;20101;-68
2023/08/04 12:29:24;;;;;;;50.63;36.22;;;30.80;99.90;;;;;;5014123;28;20156;-69